sensor_id;sensor_type;location;lat;lon;timestamp;pressure;altitude;pressure_sealevel;temperature;humidity
74270;BME280;62754;48.252;11.654;2023-04-03T00:00:30;96711.06;;;2.81;78.42
74270;BME280;62754;48.252;11.654;2023-04-03T00:02:56;96711.97;;;2.59;79.32
74270;BME280;62754;48.252;11.654;2023-04-03T00:05:24;96711.66;;;2.66;79.62
74270;BME280;62754;48.252;11.654;2023-04-03T00:07:52;96714.50;;;2.80;79.05
74270;BME280;62754;48.252;11.654;2023-04-03T00:10:20;96708.00;;;2.94;78.32
74270;BME280;62754;48.252;11.654;2023-04-03T00:12:48;96708.25;;;2.87;78.73
74270;BME280;62754;48.252;11.654;2023-04-03T00:15:17;96717.69;;;2.85;79.36
74270;BME280;62754;48.252;11.654;2023-04-03T00:17:45;96713.34;;;2.87;79.27
74270;BME280;62754;48.252;11.654;2023-04-03T00:20:11;96715.00;;;2.88;79.59
74270;BME280;62754;48.252;11.654;2023-04-03T00:22:39;96714.94;;;2.90;79.64
74270;BME280;62754;48.252;11.654;2023-04-03T00:25:06;96710.94;;;2.84;79.75
74270;BME280;62754;48.252;11.654;2023-04-03T00:27:38;96712.16;;;2.74;80.33
74270;BME280;62754;48.252;11.654;2023-04-03T00:30:06;96709.13;;;2.86;79.91
74270;BME280;62754;48.252;11.654;2023-04-03T00:32:33;96706.91;;;2.79;80.20
74270;BME280;62754;48.252;11.654;2023-04-03T00:35:01;96716.50;;;2.72;80.82
74270;BME280;62754;48.252;11.654;2023-04-03T00:37:26;96714.22;;;2.66;81.01
74270;BME280;62754;48.252;11.654;2023-04-03T00:39:55;96708.03;;;2.72;80.69
74270;BME280;62754;48.252;11.654;2023-04-03T00:42:21;96711.66;;;2.66;81.17
74270;BME280;62754;48.252;11.654;2023-04-03T00:47:16;96711.66;;;2.66;80.81
74270;BME280;62754;48.252;11.654;2023-04-03T00:49:43;96713.81;;;2.75;81.11
74270;BME280;62754;48.252;11.654;2023-04-03T00:52:18;96708.28;;;2.66;81.46
74270;BME280;62754;48.252;11.654;2023-04-03T00:54:49;96711.97;;;2.59;81.85
74270;BME280;62754;48.252;11.654;2023-04-03T00:57:16;96707.63;;;2.39;82.17
74270;BME280;62754;48.252;11.654;2023-04-03T00:59:46;96706.97;;;2.56;81.53
74270;BME280;62754;48.252;11.654;2023-04-03T01:02:17;96704.72;;;2.48;81.89
74270;BME280;62754;48.252;11.654;2023-04-03T01:04:48;96709.69;;;2.51;81.17
74270;BME280;62754;48.252;11.654;2023-04-03T01:07:18;96707.97;;;2.30;82.82
74270;BME280;62754;48.252;11.654;2023-04-03T01:09:51;96708.53;;;2.38;81.87
74270;BME280;62754;48.252;11.654;2023-04-03T01:12:22;96714.97;;;2.68;80.30
74270;BME280;62754;48.252;11.654;2023-04-03T01:14:53;96705.78;;;2.64;80.39
74270;BME280;62754;48.252;11.654;2023-04-03T01:25:27;96707.63;;;2.61;80.14
74270;BME280;62754;48.252;11.654;2023-04-03T01:27:55;96713.00;;;2.53;80.32
74270;BME280;62754;48.252;11.654;2023-04-03T01:30:25;96711.88;;;2.60;80.21
74270;BME280;62754;48.252;11.654;2023-04-03T01:32:55;96711.84;;;2.62;79.60
74270;BME280;62754;48.252;11.654;2023-04-03T01:35:23;96715.66;;;2.72;78.92
74270;BME280;62754;48.252;11.654;2023-04-03T01:37:49;96713.25;;;2.69;79.28
74270;BME280;62754;48.252;11.654;2023-04-03T01:40:19;96712.13;;;2.76;78.71
74270;BME280;62754;48.252;11.654;2023-04-03T01:42:45;96717.47;;;2.70;78.88
74270;BME280;62754;48.252;11.654;2023-04-03T01:45:11;96722.00;;;2.83;77.77
74270;BME280;62754;48.252;11.654;2023-04-03T01:47:37;96720.97;;;2.87;77.44
74270;BME280;62754;48.252;11.654;2023-04-03T01:50:07;96706.69;;;2.85;78.11
74270;BME280;62754;48.252;11.654;2023-04-03T01:52:33;96713.31;;;2.89;77.12
74270;BME280;62754;48.252;11.654;2023-04-03T01:55:04;96714.72;;;2.96;77.25
74270;BME280;62754;48.252;11.654;2023-04-03T01:57:30;96714.38;;;2.62;78.77
74270;BME280;62754;48.252;11.654;2023-04-03T01:59:58;96716.38;;;2.54;78.17
74270;BME280;62754;48.252;11.654;2023-04-03T02:02:23;96711.59;;;2.68;78.45
74270;BME280;62754;48.252;11.654;2023-04-03T02:04:51;96716.69;;;2.68;78.78
74270;BME280;62754;48.252;11.654;2023-04-03T02:07:20;96706.38;;;2.71;77.12
74270;BME280;62754;48.252;11.654;2023-04-03T02:09:45;96709.69;;;2.73;76.82
74270;BME280;62754;48.252;11.654;2023-04-03T02:12:11;96710.28;;;2.79;77.56
74270;BME280;62754;48.252;11.654;2023-04-03T02:14:39;96717.78;;;2.82;76.67
74270;BME280;62754;48.252;11.654;2023-04-03T02:17:05;96716.72;;;2.88;76.65
74270;BME280;62754;48.252;11.654;2023-04-03T02:19:31;96718.56;;;2.84;75.97
74270;BME280;62754;48.252;11.654;2023-04-03T02:21:56;96714.06;;;2.91;75.53
74270;BME280;62754;48.252;11.654;2023-04-03T02:24:22;96715.63;;;2.94;75.50
74270;BME280;62754;48.252;11.654;2023-04-03T02:26:50;96709.63;;;2.96;74.94
74270;BME280;62754;48.252;11.654;2023-04-03T02:29:18;96696.72;;;3.01;75.04
74270;BME280;62754;48.252;11.654;2023-04-03T02:31:44;96707.72;;;2.79;75.51
74270;BME280;62754;48.252;11.654;2023-04-03T02:34:12;96706.97;;;2.77;75.47
74270;BME280;62754;48.252;11.654;2023-04-03T02:36:40;96714.31;;;2.85;76.49
74270;BME280;62754;48.252;11.654;2023-04-03T02:39:10;96705.59;;;2.91;74.89
74270;BME280;62754;48.252;11.654;2023-04-03T02:41:38;96708.03;;;2.72;75.10
74270;BME280;62754;48.252;11.654;2023-04-03T02:44:11;96708.84;;;2.94;75.88
74270;BME280;62754;48.252;11.654;2023-04-03T02:46:39;96701.97;;;2.96;75.72
74270;BME280;62754;48.252;11.654;2023-04-03T02:49:07;96709.63;;;2.96;74.70
74270;BME280;62754;48.252;11.654;2023-04-03T02:51:33;96706.16;;;2.77;74.91
74270;BME280;62754;48.252;11.654;2023-04-03T02:54:01;96706.72;;;2.83;75.63
74270;BME280;62754;48.252;11.654;2023-04-03T02:56:31;96712.66;;;2.84;74.63
74270;BME280;62754;48.252;11.654;2023-04-03T02:58:59;96714.00;;;2.71;75.87
74270;BME280;62754;48.252;11.654;2023-04-03T03:01:25;96717.34;;;2.73;75.21
74270;BME280;62754;48.252;11.654;2023-04-03T03:03:51;96716.03;;;2.84;74.77
74270;BME280;62754;48.252;11.654;2023-04-03T03:06:19;96710.69;;;2.91;75.63
74270;BME280;62754;48.252;11.654;2023-04-03T03:08:47;96721.94;;;3.05;74.30
74270;BME280;62754;48.252;11.654;2023-04-03T03:11:13;96714.13;;;3.10;73.89
74270;BME280;62754;48.252;11.654;2023-04-03T03:13:38;96713.44;;;3.06;74.17
74270;BME280;62754;48.252;11.654;2023-04-03T03:16:08;96719.75;;;3.18;73.62
74270;BME280;62754;48.252;11.654;2023-04-03T03:18:36;96712.59;;;3.06;73.99
74270;BME280;62754;48.252;11.654;2023-04-03T03:21:02;96715.53;;;2.97;74.39
74270;BME280;62754;48.252;11.654;2023-04-03T03:23:31;96713.16;;;2.70;75.02
74270;BME280;62754;48.252;11.654;2023-04-03T03:26:02;96715.94;;;2.86;75.25
74270;BME280;62754;48.252;11.654;2023-04-03T03:28:29;96718.97;;;2.96;75.14
74270;BME280;62754;48.252;11.654;2023-04-03T03:30:58;96721.94;;;2.85;76.06
74270;BME280;62754;48.252;11.654;2023-04-03T03:33:28;96713.75;;;2.99;75.39
74270;BME280;62754;48.252;11.654;2023-04-03T03:35:58;96716.84;;;2.85;75.90
74270;BME280;62754;48.252;11.654;2023-04-03T03:38:24;96715.84;;;2.67;76.21
74270;BME280;62754;48.252;11.654;2023-04-03T03:40:51;96712.94;;;2.76;75.07
74270;BME280;62754;48.252;11.654;2023-04-03T03:43:21;96718.78;;;2.78;76.44
74270;BME280;62754;48.252;11.654;2023-04-03T03:45:51;96710.84;;;2.86;75.56
74270;BME280;62754;48.252;11.654;2023-04-03T03:48:23;96718.00;;;2.98;74.32
74270;BME280;62754;48.252;11.654;2023-04-03T03:50:49;96713.91;;;2.94;74.44
74270;BME280;62754;48.252;11.654;2023-04-03T03:53:17;96718.38;;;2.89;75.60
74270;BME280;62754;48.252;11.654;2023-04-03T03:55:43;96715.91;;;2.66;75.41
74270;BME280;62754;48.252;11.654;2023-04-03T03:58:13;96715.41;;;3.00;75.23
74270;BME280;62754;48.252;11.654;2023-04-03T04:00:39;96715.06;;;2.87;75.89
74270;BME280;62754;48.252;11.654;2023-04-03T04:03:04;96715.63;;;2.73;75.87
74270;BME280;62754;48.252;11.654;2023-04-03T04:05:30;96716.31;;;2.55;76.72
74270;BME280;62754;48.252;11.654;2023-04-03T04:07:58;96715.25;;;2.61;75.91
74270;BME280;62754;48.252;11.654;2023-04-03T04:10:24;96725.38;;;2.62;76.46
74270;BME280;62754;48.252;11.654;2023-04-03T04:12:52;96719.44;;;2.83;75.69
74270;BME280;62754;48.252;11.654;2023-04-03T04:15:20;96718.09;;;2.97;75.05
74270;BME280;62754;48.252;11.654;2023-04-03T04:17:48;96721.50;;;2.96;74.54
74270;BME280;62754;48.252;11.654;2023-04-03T04:20:16;96717.31;;;2.95;74.58
74270;BME280;62754;48.252;11.654;2023-04-03T04:22:44;96716.50;;;2.72;76.20
74270;BME280;62754;48.252;11.654;2023-04-03T04:25:10;96718.16;;;2.73;75.80
74270;BME280;62754;48.252;11.654;2023-04-03T04:27:36;96714.09;;;2.69;76.04
74270;BME280;62754;48.252;11.654;2023-04-03T04:30:04;96715.50;;;2.76;76.03
74270;BME280;62754;48.252;11.654;2023-04-03T04:32:30;96719.16;;;2.91;75.70
74270;BME280;62754;48.252;11.654;2023-04-03T04:34:58;96721.59;;;2.72;75.54
74270;BME280;62754;48.252;11.654;2023-04-03T04:37:26;96722.16;;;2.79;75.57
74270;BME280;62754;48.252;11.654;2023-04-03T04:40:00;96723.19;;;2.75;76.09
74270;BME280;62754;48.252;11.654;2023-04-03T04:42:29;96731.34;;;2.61;76.00
74270;BME280;62754;48.252;11.654;2023-04-03T04:44:55;96736.56;;;2.58;76.51
74270;BME280;62754;48.252;11.654;2023-04-03T04:47:23;96733.41;;;2.52;77.00
74270;BME280;62754;48.252;11.654;2023-04-03T04:49:49;96736.56;;;2.58;77.02
74270;BME280;62754;48.252;11.654;2023-04-03T04:52:14;96727.50;;;2.73;76.80
74270;BME280;62754;48.252;11.654;2023-04-03T04:54:40;96741.25;;;2.69;76.21
74270;BME280;62754;48.252;11.654;2023-04-03T04:57:06;96739.66;;;2.66;76.68
74270;BME280;62754;48.252;11.654;2023-04-03T04:59:36;96734.06;;;2.78;75.97
74270;BME280;62754;48.252;11.654;2023-04-03T05:02:04;96732.56;;;2.51;76.67
74270;BME280;62754;48.252;11.654;2023-04-03T05:04:33;96735.91;;;2.53;76.64
74270;BME280;62754;48.252;11.654;2023-04-03T05:07:01;96736.69;;;2.77;75.57
74270;BME280;62754;48.252;11.654;2023-04-03T05:09:29;96741.69;;;2.78;75.59
74270;BME280;62754;48.252;11.654;2023-04-03T05:11:54;96741.34;;;2.87;74.92
74270;BME280;62754;48.252;11.654;2023-04-03T05:14:23;96748.56;;;2.76;75.22
74270;BME280;62754;48.252;11.654;2023-04-03T05:16:51;96752.16;;;2.71;76.50
74270;BME280;62754;48.252;11.654;2023-04-03T05:19:17;96745.13;;;2.56;76.35
74270;BME280;62754;48.252;11.654;2023-04-03T05:21:46;96752.28;;;2.46;76.79
74270;BME280;62754;48.252;11.654;2023-04-03T05:24:11;96745.25;;;2.53;76.46
74270;BME280;62754;48.252;11.654;2023-04-03T05:26:37;96746.44;;;2.66;75.90
74270;BME280;62754;48.252;11.654;2023-04-03T05:29:03;96754.50;;;2.77;75.45
74270;BME280;62754;48.252;11.654;2023-04-03T05:31:29;96754.06;;;2.87;75.41
74270;BME280;62754;48.252;11.654;2023-04-03T05:33:57;96743.44;;;2.78;75.37
74270;BME280;62754;48.252;11.654;2023-04-03T05:36:26;96738.97;;;2.83;75.20
74270;BME280;62754;48.252;11.654;2023-04-03T05:38:52;96747.47;;;3.04;73.96
74270;BME280;62754;48.252;11.654;2023-04-03T05:41:19;96752.81;;;2.98;74.91
74270;BME280;62754;48.252;11.654;2023-04-03T05:43:44;96746.97;;;2.96;75.61
74270;BME280;62754;48.252;11.654;2023-04-03T05:46:16;96753.16;;;3.10;74.20
74270;BME280;62754;48.252;11.654;2023-04-03T05:48:44;96753.00;;;2.93;74.94
74270;BME280;62754;48.252;11.654;2023-04-03T05:51:24;96747.47;;;3.04;74.68
74270;BME280;62754;48.252;11.654;2023-04-03T05:54:00;96748.06;;;3.10;73.60
74270;BME280;62754;48.252;11.654;2023-04-03T05:56:31;96754.25;;;3.25;73.86
74270;BME280;62754;48.252;11.654;2023-04-03T05:58:59;96752.75;;;2.99;74.66
74270;BME280;62754;48.252;11.654;2023-04-03T06:01:25;96752.13;;;3.14;74.02
74270;BME280;62754;48.252;11.654;2023-04-03T06:03:53;96758.75;;;3.18;74.34
74270;BME280;62754;48.252;11.654;2023-04-03T06:06:21;96755.91;;;3.26;73.70
74270;BME280;62754;48.252;11.654;2023-04-03T06:08:50;96761.13;;;3.23;73.14
74270;BME280;62754;48.252;11.654;2023-04-03T06:11:16;96760.78;;;3.32;73.26
74270;BME280;62754;48.252;11.654;2023-04-03T06:13:44;96758.72;;;3.20;74.06
74270;BME280;62754;48.252;11.654;2023-04-03T06:16:12;96759.66;;;3.17;73.71
74270;BME280;62754;48.252;11.654;2023-04-03T06:18:38;96760.34;;;3.21;73.71
74270;BME280;62754;48.252;11.654;2023-04-03T06:21:09;96757.59;;;3.05;73.90
74270;BME280;62754;48.252;11.654;2023-04-03T06:23:34;96765.88;;;3.10;73.52
74270;BME280;62754;48.252;11.654;2023-04-03T06:26:03;96768.41;;;3.32;72.64
74270;BME280;62754;48.252;11.654;2023-04-03T06:28:28;96764.41;;;3.47;72.15
74270;BME280;62754;48.252;11.654;2023-04-03T06:30:54;96768.41;;;3.32;72.49
74270;BME280;62754;48.252;11.654;2023-04-03T06:33:20;96772.88;;;3.47;71.79
74270;BME280;62754;48.252;11.654;2023-04-03T06:35:48;96776.94;;;3.51;71.77
74270;BME280;62754;48.252;11.654;2023-04-03T06:38:16;96776.41;;;3.63;71.80
74270;BME280;62754;48.252;11.654;2023-04-03T06:40:45;96778.28;;;3.60;71.71
74270;BME280;62754;48.252;11.654;2023-04-03T06:43:10;96779.06;;;3.62;72.06
74270;BME280;62754;48.252;11.654;2023-04-03T06:45:36;96772.09;;;3.65;71.30
74270;BME280;62754;48.252;11.654;2023-04-03T06:48:04;96779.47;;;3.71;72.33
74270;BME280;62754;48.252;11.654;2023-04-03T06:50:32;96782.63;;;3.78;70.98
74270;BME280;62754;48.252;11.654;2023-04-03T06:53:00;96779.28;;;3.76;69.65
74270;BME280;62754;48.252;11.654;2023-04-03T06:55:28;96781.19;;;3.91;71.10
74270;BME280;62754;48.252;11.654;2023-04-03T06:57:56;96785.22;;;3.76;70.55
74270;BME280;62754;48.252;11.654;2023-04-03T07:00:22;96787.16;;;3.90;69.82
74270;BME280;62754;48.252;11.654;2023-04-03T07:02:50;96772.66;;;3.72;70.56
74270;BME280;62754;48.252;11.654;2023-04-03T07:05:18;96783.88;;;3.68;70.41
74270;BME280;62754;48.252;11.654;2023-04-03T07:07:44;96791.06;;;3.78;70.53
74270;BME280;62754;48.252;11.654;2023-04-03T07:10:12;96785.41;;;3.92;69.89
74270;BME280;62754;48.252;11.654;2023-04-03T07:12:40;96787.47;;;4.03;69.25
74270;BME280;62754;48.252;11.654;2023-04-03T07:15:09;96790.25;;;3.78;69.56
74270;BME280;62754;48.252;11.654;2023-04-03T07:17:38;96799.91;;;4.10;69.60
74270;BME280;62754;48.252;11.654;2023-04-03T07:20:04;96811.06;;;4.08;69.99
74270;BME280;62754;48.252;11.654;2023-04-03T07:22:32;96809.31;;;3.90;69.92
74270;BME280;62754;48.252;11.654;2023-04-03T07:24:58;96806.47;;;3.96;69.26
74270;BME280;62754;48.252;11.654;2023-04-03T07:27:27;96803.56;;;4.05;70.07
74270;BME280;62754;48.252;11.654;2023-04-03T07:29:54;96808.53;;;4.26;69.41
74270;BME280;62754;48.252;11.654;2023-04-03T07:32:20;96811.28;;;4.22;68.93
74270;BME280;62754;48.252;11.654;2023-04-03T07:34:46;96818.78;;;4.25;69.94
74270;BME280;62754;48.252;11.654;2023-04-03T07:37:12;96819.19;;;4.36;70.13
74270;BME280;62754;48.252;11.654;2023-04-03T07:39:45;96817.78;;;4.29;69.17
74270;BME280;62754;48.252;11.654;2023-04-03T07:42:11;96823.31;;;4.39;69.52
74270;BME280;62754;48.252;11.654;2023-04-03T07:44:37;96828.53;;;4.17;69.01
74270;BME280;62754;48.252;11.654;2023-04-03T07:47:04;96825.22;;;4.33;69.15
74270;BME280;62754;48.252;11.654;2023-04-03T07:49:32;96832.88;;;4.33;69.20
74270;BME280;62754;48.252;11.654;2023-04-03T07:51:58;96831.81;;;4.58;69.50
74270;BME280;62754;48.252;11.654;2023-04-03T07:54:24;96836.97;;;4.56;69.29
74270;BME280;62754;48.252;11.654;2023-04-03T07:56:52;96829.59;;;4.50;68.74
74270;BME280;62754;48.252;11.654;2023-04-03T07:59:20;96829.72;;;4.28;69.04
74270;BME280;62754;48.252;11.654;2023-04-03T08:01:50;96831.47;;;4.65;68.28
74270;BME280;62754;48.252;11.654;2023-04-03T08:04:18;96836.63;;;4.45;68.92
74270;BME280;62754;48.252;11.654;2023-04-03T08:06:44;96834.88;;;4.27;69.80
74270;BME280;62754;48.252;11.654;2023-04-03T08:09:09;96838.22;;;4.48;68.79
74270;BME280;62754;48.252;11.654;2023-04-03T08:11:43;96835.34;;;4.55;68.59
74270;BME280;62754;48.252;11.654;2023-04-03T08:14:14;96834.00;;;4.47;68.14
74270;BME280;62754;48.252;11.654;2023-04-03T08:16:42;96834.38;;;4.58;69.67
74270;BME280;62754;48.252;11.654;2023-04-03T08:19:13;96834.16;;;4.81;67.72
74270;BME280;62754;48.252;11.654;2023-04-03T08:21:45;96828.63;;;4.71;67.10
74270;BME280;62754;48.252;11.654;2023-04-03T08:24:20;96838.00;;;4.52;68.02
74270;BME280;62754;48.252;11.654;2023-04-03T08:26:48;96835.06;;;4.61;66.41
74270;BME280;62754;48.252;11.654;2023-04-03T08:29:16;96836.34;;;4.89;66.69
74270;BME280;62754;48.252;11.654;2023-04-03T08:31:44;96831.94;;;4.73;67.24
74270;BME280;62754;48.252;11.654;2023-04-03T08:34:13;96828.50;;;4.93;67.96
74270;BME280;62754;48.252;11.654;2023-04-03T08:36:42;96836.97;;;5.12;67.93
74270;BME280;62754;48.252;11.654;2023-04-03T08:39:10;96837.16;;;5.08;67.27
74270;BME280;62754;48.252;11.654;2023-04-03T08:41:39;96831.94;;;4.92;67.44
74270;BME280;62754;48.252;11.654;2023-04-03T08:46:55;96838.31;;;5.19;65.75
74270;BME280;62754;48.252;11.654;2023-04-03T08:49:31;96835.91;;;5.16;66.27
74270;BME280;62754;48.252;11.654;2023-04-03T08:52:01;96831.69;;;5.51;66.09
74270;BME280;62754;48.252;11.654;2023-04-03T08:57:02;96839.59;;;5.81;63.60
74270;BME280;62754;48.252;11.654;2023-04-03T08:59:39;96843.63;;;5.68;65.55
74270;BME280;62754;48.252;11.654;2023-04-03T09:02:25;96841.41;;;5.96;63.06
74270;BME280;62754;48.252;11.654;2023-04-03T09:04:53;96846.47;;;5.98;61.70
74270;BME280;62754;48.252;11.654;2023-04-03T09:07:30;96848.81;;;6.02;60.65
74270;BME280;62754;48.252;11.654;2023-04-03T09:09:59;96848.25;;;5.96;62.26
74270;BME280;62754;48.252;11.654;2023-04-03T09:12:32;96844.44;;;6.04;61.77
74270;BME280;62754;48.252;11.654;2023-04-03T09:17:59;96852.59;;;5.76;63.10
74270;BME280;62754;48.252;11.654;2023-04-03T09:25:56;96839.84;;;5.41;62.91
74270;BME280;62754;48.252;11.654;2023-04-03T09:28:23;96836.50;;;5.57;63.08
74270;BME280;62754;48.252;11.654;2023-04-03T09:30:49;96841.41;;;5.26;64.06
74270;BME280;62754;48.252;11.654;2023-04-03T09:33:18;96847.97;;;5.49;63.06
74270;BME280;62754;48.252;11.654;2023-04-03T09:35:45;96836.34;;;5.07;63.13
74270;BME280;62754;48.252;11.654;2023-04-03T09:45:41;96841.44;;;5.07;63.58
74270;BME280;62754;48.252;11.654;2023-04-03T09:48:19;96846.47;;;5.27;63.51
74270;BME280;62754;48.252;11.654;2023-04-03T09:56:01;96846.56;;;5.07;63.12
74270;BME280;62754;48.252;11.654;2023-04-03T09:58:39;96848.09;;;4.93;62.67
74270;BME280;62754;48.252;11.654;2023-04-03T10:01:06;96844.75;;;4.91;61.57
74270;BME280;62754;48.252;11.654;2023-04-03T10:03:36;96842.03;;;4.76;61.41
74270;BME280;62754;48.252;11.654;2023-04-03T10:06:03;96845.94;;;4.65;61.19
74270;BME280;62754;48.252;11.654;2023-04-03T10:08:35;96837.09;;;4.91;61.53
74270;BME280;62754;48.252;11.654;2023-04-03T10:11:14;96848.94;;;4.74;62.80
74270;BME280;62754;48.252;11.654;2023-04-03T10:13:57;96849.72;;;4.75;64.20
74270;BME280;62754;48.252;11.654;2023-04-03T10:16:35;96849.69;;;4.76;64.15
74270;BME280;62754;48.252;11.654;2023-04-03T10:25:21;96848.84;;;4.76;61.53
74270;BME280;62754;48.252;11.654;2023-04-03T10:47:02;96848.63;;;4.43;59.61
74270;BME280;62754;48.252;11.654;2023-04-03T10:49:41;96842.75;;;4.41;60.10
74270;BME280;62754;48.252;11.654;2023-04-03T10:52:28;96844.91;;;4.50;60.76
74270;BME280;62754;48.252;11.654;2023-04-03T10:55:34;96835.59;;;4.68;59.17
74270;BME280;62754;48.252;11.654;2023-04-03T10:58:00;96837.81;;;4.75;58.52
74270;BME280;62754;48.252;11.654;2023-04-03T11:00:40;96845.47;;;4.75;57.44
74270;BME280;62754;48.252;11.654;2023-04-03T11:06:24;96835.72;;;5.02;56.28
74270;BME280;62754;48.252;11.654;2023-04-03T11:08:55;96835.13;;;4.97;54.74
74270;BME280;62754;48.252;11.654;2023-04-03T11:11:29;96842.34;;;5.06;54.78
74270;BME280;62754;48.252;11.654;2023-04-03T11:14:05;96838.25;;;5.21;54.28
74270;BME280;62754;48.252;11.654;2023-04-03T11:16:42;96830.50;;;5.22;52.60
74270;BME280;62754;48.252;11.654;2023-04-03T11:19:26;96831.22;;;5.43;52.87
74270;BME280;62754;48.252;11.654;2023-04-03T11:21:57;96826.59;;;5.51;51.40
74270;BME280;62754;48.252;11.654;2023-04-03T11:24:28;96826.66;;;5.50;50.52
74270;BME280;62754;48.252;11.654;2023-04-03T11:26:59;96828.84;;;5.92;50.22
74270;BME280;62754;48.252;11.654;2023-04-03T11:29:32;96829.91;;;6.05;51.86
74270;BME280;62754;48.252;11.654;2023-04-03T11:32:16;96824.00;;;6.68;49.83
74270;BME280;62754;48.252;11.654;2023-04-03T11:34:53;96820.50;;;7.02;47.51
74270;BME280;62754;48.252;11.654;2023-04-03T11:37:34;96805.22;;;7.31;45.63
74270;BME280;62754;48.252;11.654;2023-04-03T11:42:48;96808.88;;;8.73;43.91
74270;BME280;62754;48.252;11.654;2023-04-03T11:50:52;96799.22;;;9.44;41.20
74270;BME280;62754;48.252;11.654;2023-04-03T11:53:40;96798.09;;;9.21;42.17
74270;BME280;62754;48.252;11.654;2023-04-03T12:04:15;96786.06;;;11.59;35.83
74270;BME280;62754;48.252;11.654;2023-04-03T12:06:50;96787.72;;;11.60;37.45
74270;BME280;62754;48.252;11.654;2023-04-03T12:12:31;96777.88;;;13.54;32.50
74270;BME280;62754;48.252;11.654;2023-04-03T12:15:26;96772.47;;;13.98;30.91
74270;BME280;62754;48.252;11.654;2023-04-03T12:17:54;96774.16;;;12.59;31.96
74270;BME280;62754;48.252;11.654;2023-04-03T12:23:32;96775.50;;;13.62;32.70
74270;BME280;62754;48.252;11.654;2023-04-03T12:28:45;96764.91;;;10.95;36.83
74270;BME280;62754;48.252;11.654;2023-04-03T12:31:12;96769.81;;;10.74;37.02
74270;BME280;62754;48.252;11.654;2023-04-03T12:36:18;96774.13;;;9.21;40.97
74270;BME280;62754;48.252;11.654;2023-04-03T12:41:50;96768.78;;;8.42;41.19
74270;BME280;62754;48.252;11.654;2023-04-03T12:47:00;96767.00;;;7.72;42.12
74270;BME280;62754;48.252;11.654;2023-04-03T12:49:40;96757.78;;;7.97;40.75
74270;BME280;62754;48.252;11.654;2023-04-03T12:52:44;96760.28;;;7.55;43.79
74270;BME280;62754;48.252;11.654;2023-04-03T12:55:19;96758.16;;;8.05;40.62
74270;BME280;62754;48.252;11.654;2023-04-03T12:57:47;96759.13;;;7.89;40.10
74270;BME280;62754;48.252;11.654;2023-04-03T13:02:53;96754.66;;;7.78;43.43
74270;BME280;62754;48.252;11.654;2023-04-03T13:05:25;96747.53;;;7.53;43.89
74270;BME280;62754;48.252;11.654;2023-04-03T13:08:00;96763.75;;;7.24;44.91
74270;BME280;62754;48.252;11.654;2023-04-03T13:10:26;96751.47;;;6.99;43.73
74270;BME280;62754;48.252;11.654;2023-04-03T13:15:23;96757.09;;;7.36;44.90
74270;BME280;62754;48.252;11.654;2023-04-03T13:17:52;96755.00;;;7.42;44.33
74270;BME280;62754;48.252;11.654;2023-04-03T13:20:21;96763.63;;;7.41;44.65
74270;BME280;62754;48.252;11.654;2023-04-03T13:22:50;96745.25;;;7.49;44.46
74270;BME280;62754;48.252;11.654;2023-04-03T13:25:20;96756.19;;;7.81;42.91
74270;BME280;62754;48.252;11.654;2023-04-03T13:27:49;96753.81;;;7.92;43.12
74270;BME280;62754;48.252;11.654;2023-04-03T13:32:45;96744.31;;;8.50;41.24
74270;BME280;62754;48.252;11.654;2023-04-03T13:37:59;96754.84;;;9.80;40.09
74270;BME280;62754;48.252;11.654;2023-04-03T13:40:25;96750.47;;;9.55;38.08
74270;BME280;62754;48.252;11.654;2023-04-03T13:43:17;96744.38;;;8.63;39.87
74270;BME280;62754;48.252;11.654;2023-04-03T13:48:25;96740.66;;;11.80;35.36
74270;BME280;62754;48.252;11.654;2023-04-03T13:51:02;96750.88;;;14.09;31.18
74270;BME280;62754;48.252;11.654;2023-04-03T13:53:31;96747.19;;;14.11;29.06
74270;BME280;62754;48.252;11.654;2023-04-03T13:58:30;96734.72;;;12.35;31.64
74270;BME280;62754;48.252;11.654;2023-04-03T14:01:07;96741.84;;;11.87;32.01
74270;BME280;62754;48.252;11.654;2023-04-03T14:03:44;96736.06;;;11.72;32.56
74270;BME280;62754;48.252;11.654;2023-04-03T14:06:14;96732.47;;;13.50;31.69
74270;BME280;62754;48.252;11.654;2023-04-03T14:08:45;96730.66;;;12.86;30.23
74270;BME280;62754;48.252;11.654;2023-04-03T14:11:16;96722.94;;;13.92;28.72
74270;BME280;62754;48.252;11.654;2023-04-03T14:13:46;96725.22;;;16.10;27.77
74270;BME280;62754;48.252;11.654;2023-04-03T14:16:15;96723.91;;;17.60;25.31
74270;BME280;62754;48.252;11.654;2023-04-03T14:18:43;96728.91;;;17.97;24.94
74270;BME280;62754;48.252;11.654;2023-04-03T14:21:11;96726.69;;;15.28;28.14
74270;BME280;62754;48.252;11.654;2023-04-03T14:23:39;96730.81;;;13.17;29.62
74270;BME280;62754;48.252;11.654;2023-04-03T14:26:12;96724.97;;;12.16;29.10
74270;BME280;62754;48.252;11.654;2023-04-03T14:28:40;96722.16;;;10.43;32.01
74270;BME280;62754;48.252;11.654;2023-04-03T14:31:08;96717.25;;;9.65;33.83
74270;BME280;62754;48.252;11.654;2023-04-03T14:33:37;96728.50;;;8.97;34.79
74270;BME280;62754;48.252;11.654;2023-04-03T14:36:28;96725.38;;;8.66;36.01
74270;BME280;62754;48.252;11.654;2023-04-03T14:38:55;96729.66;;;8.38;34.48
74270;BME280;62754;48.252;11.654;2023-04-03T14:41:23;96721.28;;;9.69;32.87
74270;BME280;62754;48.252;11.654;2023-04-03T14:43:50;96716.19;;;9.54;34.89
74270;BME280;62754;48.252;11.654;2023-04-03T14:46:25;96719.63;;;9.68;33.56
74270;BME280;62754;48.252;11.654;2023-04-03T14:48:52;96726.69;;;8.99;35.70
74270;BME280;62754;48.252;11.654;2023-04-03T14:51:20;96718.41;;;8.68;36.87
74270;BME280;62754;48.252;11.654;2023-04-03T14:53:48;96720.31;;;9.44;32.39
74270;BME280;62754;48.252;11.654;2023-04-03T14:56:19;96724.03;;;12.39;29.05
74270;BME280;62754;48.252;11.654;2023-04-03T14:58:45;96720.91;;;14.25;24.66
74270;BME280;62754;48.252;11.654;2023-04-03T15:01:11;96720.81;;;15.36;24.27
74270;BME280;62754;48.252;11.654;2023-04-03T15:03:37;96729.06;;;17.07;22.62
74270;BME280;62754;48.252;11.654;2023-04-03T15:06:06;96714.28;;;17.26;21.89